Time,TemperatureF,DewpointF,PressureIn,WindDirection,WindDirectionDegrees,WindSpeedMPH,WindSpeedGustMPH,Humidity,HourlyPrecipIn,Conditions,Clouds,dailyrainin,SoftwareType,DateUTC
2013-01-30 00:00:00,24.1,22.4,30.03,ENE,72,0.0,0.0,93,0.00,,,0.00,Wunderground v.1.12,2013-01-30 07:00:00,
2013-01-30 00:05:00,24.1,22.4,30.04,ENE,73,0.0,0.0,93,0.00,,,0.00,Wunderground v.1.12,2013-01-30 07:05:00,
2013-01-30 00:10:00,24.1,22.4,30.03,ENE,73,0.0,0.0,93,0.00,,,0.00,Wunderground v.1.12,2013-01-30 07:10:00,
2013-01-30 00:15:00,23.9,22.2,30.03,ENE,73,0.0,0.0,93,0.00,,,0.00,Wunderground v.1.12,2013-01-30 07:15:00,
2013-01-30 00:20:00,23.9,22.4,30.03,ENE,73,0.0,0.0,94,0.00,,,0.00,Wunderground v.1.12,2013-01-30 07:20:00,
2013-01-30 00:25:00,24.1,22.6,30.02,ENE,72,0.0,0.0,94,0.00,,,0.00,Wunderground v.1.12,2013-01-30 07:25:00,
2013-01-30 00:30:00,24.5,23.0,30.02,ENE,73,0.0,0.0,94,0.00,,,0.00,Wunderground v.1.12,2013-01-30 07:30:00,
2013-01-30 00:35:00,24.0,22.5,30.02,ENE,73,0.0,0.0,94,0.00,,,0.00,Wunderground v.1.12,2013-01-30 07:35:00,
2013-01-30 00:40:00,24.2,22.7,30.01,ENE,73,0.0,0.0,94,0.00,,,0.00,Wunderground v.1.12,2013-01-30 07:40:00,
2013-01-30 00:45:00,24.2,23.0,30.02,ENE,73,0.0,0.0,95,0.00,,,0.00,Wunderground v.1.12,2013-01-30 07:45:00,
2013-01-30 00:50:00,24.4,22.9,30.02,ENE,73,0.0,0.0,94,0.00,,,0.00,Wunderground v.1.12,2013-01-30 07:50:00,
2013-01-30 00:55:00,24.3,22.8,30.02,ENE,73,0.0,0.0,94,0.00,,,0.00,Wunderground v.1.12,2013-01-30 07:55:00,
2013-01-30 01:05:00,24.2,22.7,30.02,ENE,73,0.0,0.0,94,0.00,,,0.00,Wunderground v.1.12,2013-01-30 08:05:00,
2013-01-30 01:10:00,24.3,22.8,30.02,ENE,73,0.0,0.0,94,0.00,,,0.00,Wunderground v.1.12,2013-01-30 08:10:00,
2013-01-30 01:15:00,24.0,22.5,30.02,ENE,73,0.0,0.0,94,0.00,,,0.00,Wunderground v.1.12,2013-01-30 08:15:00,
2013-01-30 01:20:00,24.2,22.7,30.02,ENE,73,0.0,0.0,94,0.00,,,0.00,Wunderground v.1.12,2013-01-30 08:20:00,
2013-01-30 01:25:00,24.3,22.8,30.02,ENE,73,0.0,0.0,94,0.00,,,0.00,Wunderground v.1.12,2013-01-30 08:25:00,
2013-01-30 01:30:00,24.4,22.9,30.02,ENE,73,0.0,0.0,94,0.00,,,0.00,Wunderground v.1.12,2013-01-30 08:30:00,
2013-01-30 01:40:00,24.2,22.7,30.02,ENE,73,0.0,0.0,94,0.00,,,0.00,Wunderground v.1.12,2013-01-30 08:40:00,
2013-01-30 01:45:00,24.3,22.6,30.01,ENE,73,0.0,0.0,93,0.00,,,0.00,Wunderground v.1.12,2013-01-30 08:45:00,
2013-01-30 01:50:00,24.0,22.3,30.01,ENE,73,0.0,0.0,93,0.00,,,0.00,Wunderground v.1.12,2013-01-30 08:50:00,
2013-01-30 01:55:00,24.4,22.7,30.01,ENE,73,0.0,0.0,93,0.00,,,0.00,Wunderground v.1.12,2013-01-30 08:55:00,
2013-01-30 02:00:00,24.2,22.5,30.00,ENE,73,0.0,0.0,93,0.00,,,0.00,Wunderground v.1.12,2013-01-30 09:00:00,
2013-01-30 02:10:00,24.4,22.7,30.00,ENE,73,0.0,0.0,93,0.00,,,0.00,Wunderground v.1.12,2013-01-30 09:10:00,
2013-01-30 02:15:00,24.3,22.8,30.00,ENE,73,0.0,0.0,94,0.00,,,0.00,Wunderground v.1.12,2013-01-30 09:15:00,
2013-01-30 02:20:00,24.1,22.6,29.99,ENE,73,0.0,0.0,94,0.00,,,0.00,Wunderground v.1.12,2013-01-30 09:20:00,
2013-01-30 02:25:00,24.5,22.8,29.99,ENE,73,0.0,0.0,93,0.00,,,0.00,Wunderground v.1.12,2013-01-30 09:25:00,
2013-01-30 02:30:00,24.4,22.9,29.99,ENE,73,0.0,0.0,94,0.00,,,0.00,Wunderground v.1.12,2013-01-30 09:30:00,
2013-01-30 02:40:00,24.6,23.1,29.99,ENE,73,0.0,0.0,94,0.00,,,0.00,Wunderground v.1.12,2013-01-30 09:40:00,
2013-01-30 02:45:00,24.6,23.1,30.00,ENE,73,0.0,0.0,94,0.00,,,0.00,Wunderground v.1.12,2013-01-30 09:45:00,
2013-01-30 02:50:00,24.5,23.0,30.00,ENE,73,0.0,0.0,94,0.00,,,0.00,Wunderground v.1.12,2013-01-30 09:50:00,
2013-01-30 02:55:00,24.5,23.0,30.00,ENE,73,0.0,0.0,94,0.00,,,0.00,Wunderground v.1.12,2013-01-30 09:55:00,
2013-01-30 03:00:00,24.4,23.2,30.00,ENE,73,0.0,0.0,95,0.00,,,0.00,Wunderground v.1.12,2013-01-30 10:00:00,
2013-01-30 03:05:00,24.6,23.4,30.00,ENE,73,0.0,0.0,95,0.00,,,0.00,Wunderground v.1.12,2013-01-30 10:05:00,
2013-01-30 03:15:00,24.8,23.8,29.99,ENE,74,0.0,0.0,96,0.00,,,0.00,Wunderground v.1.12,2013-01-30 10:15:00,
2013-01-30 03:20:00,24.7,23.7,30.00,ENE,74,0.0,0.0,96,0.00,,,0.00,Wunderground v.1.12,2013-01-30 10:20:00,
2013-01-30 03:25:00,24.6,23.4,30.01,ENE,73,0.0,0.0,95,0.00,,,0.00,Wunderground v.1.12,2013-01-30 10:25:00,
2013-01-30 03:30:00,24.7,23.5,30.00,ENE,74,0.0,0.0,95,0.00,,,0.00,Wunderground v.1.12,2013-01-30 10:30:00,
2013-01-30 03:35:00,24.9,23.9,30.00,SSW,195,0.0,0.0,96,0.00,,,0.00,Wunderground v.1.12,2013-01-30 10:35:00,
2013-01-30 03:45:00,24.7,23.2,30.00,SSW,195,0.0,0.0,94,0.00,,,0.00,Wunderground v.1.12,2013-01-30 10:45:00,
2013-01-30 03:50:00,24.5,23.0,30.00,SSW,195,0.0,0.0,94,0.00,,,0.00,Wunderground v.1.12,2013-01-30 10:50:00,
2013-01-30 04:00:00,24.7,23.0,30.00,SSW,195,0.0,0.0,93,0.00,,,0.00,Wunderground v.1.12,2013-01-30 11:00:00,
2013-01-30 04:05:00,24.8,23.1,30.00,N/A,-737280,0.0,0.0,93,0.00,,,0.00,Wunderground v.1.12,2013-01-30 11:05:00,
2013-01-30 04:10:00,24.8,23.1,30.01,ENE,76,0.0,0.0,93,0.00,,,0.00,Wunderground v.1.12,2013-01-30 11:10:00,
2013-01-30 04:15:00,24.6,23.1,30.00,ENE,76,0.0,0.0,94,0.00,,,0.00,Wunderground v.1.12,2013-01-30 11:15:00,
2013-01-30 04:20:00,25.1,23.6,30.00,ENE,76,0.0,0.0,94,0.00,,,0.00,Wunderground v.1.12,2013-01-30 11:20:00,
2013-01-30 04:25:00,25.0,23.5,30.00,ENE,76,0.0,0.0,94,0.00,,,0.00,Wunderground v.1.12,2013-01-30 11:25:00,
2013-01-30 04:30:00,24.8,23.3,30.00,ENE,76,0.0,0.0,94,0.00,,,0.00,Wunderground v.1.12,2013-01-30 11:30:00,
2013-01-30 04:35:00,24.8,23.3,30.00,ENE,76,0.0,0.0,94,0.00,,,0.00,Wunderground v.1.12,2013-01-30 11:35:00,
2013-01-30 04:40:00,24.7,23.2,30.00,ENE,76,0.0,0.0,94,0.00,,,0.00,Wunderground v.1.12,2013-01-30 11:40:00,
2013-01-30 04:50:00,24.8,23.1,30.00,ENE,76,0.0,0.0,93,0.00,,,0.00,Wunderground v.1.12,2013-01-30 11:50:00,
2013-01-30 04:55:00,24.9,23.2,30.00,ENE,76,0.0,0.0,93,0.00,,,0.00,Wunderground v.1.12,2013-01-30 11:55:00,
2013-01-30 05:00:00,25.0,23.3,30.00,ENE,76,0.0,0.0,93,0.00,,,0.00,Wunderground v.1.12,2013-01-30 12:00:00,
2013-01-30 05:05:00,24.8,23.1,30.00,ENE,76,0.0,0.0,93,0.00,,,0.00,Wunderground v.1.12,2013-01-30 12:05:00,
2013-01-30 05:10:00,25.0,23.3,30.00,ENE,76,0.0,0.0,93,0.00,,,0.00,Wunderground v.1.12,2013-01-30 12:10:00,
2013-01-30 05:15:00,24.8,23.3,29.99,ENE,76,0.0,0.0,94,0.00,,,0.00,Wunderground v.1.12,2013-01-30 12:15:00,
2013-01-30 05:20:00,25.0,23.5,29.99,ENE,76,0.0,0.0,94,0.00,,,0.00,Wunderground v.1.12,2013-01-30 12:20:00,
2013-01-30 05:25:00,25.2,23.7,30.00,ENE,76,0.0,0.0,94,0.00,,,0.00,Wunderground v.1.12,2013-01-30 12:25:00,
2013-01-30 05:35:00,25.0,23.5,29.99,ENE,76,0.0,0.0,94,0.00,,,0.00,Wunderground v.1.12,2013-01-30 12:35:00,
2013-01-30 05:45:00,25.1,23.9,29.99,ENE,76,0.0,0.0,95,0.00,,,0.00,Wunderground v.1.12,2013-01-30 12:45:00,
2013-01-30 05:50:00,25.0,23.8,29.99,ENE,76,0.0,0.0,95,0.00,,,0.00,Wunderground v.1.12,2013-01-30 12:50:00,
2013-01-30 05:55:00,25.0,23.8,29.99,ENE,76,0.0,0.0,95,0.00,,,0.00,Wunderground v.1.12,2013-01-30 12:55:00,
2013-01-30 06:00:00,25.2,24.0,29.99,ENE,76,0.0,0.0,95,0.00,,,0.00,Wunderground v.1.12,2013-01-30 13:00:00,
2013-01-30 06:05:00,25.5,24.5,29.99,ENE,76,0.0,0.0,96,0.00,,,0.00,Wunderground v.1.12,2013-01-30 13:05:00,
2013-01-30 06:15:00,25.4,24.4,29.99,ENE,76,0.0,0.0,96,0.00,,,0.00,Wunderground v.1.12,2013-01-30 13:15:00,
2013-01-30 06:25:00,25.7,24.5,29.99,ENE,76,0.0,0.0,95,0.00,,,0.00,Wunderground v.1.12,2013-01-30 13:25:00,
2013-01-30 06:30:00,25.5,24.3,29.99,ENE,76,0.0,0.0,95,0.00,,,0.00,Wunderground v.1.12,2013-01-30 13:30:00,
2013-01-30 06:35:00,25.4,24.4,30.00,N/A,-737280,0.0,0.0,96,0.00,,,0.00,Wunderground v.1.12,2013-01-30 13:35:00,
2013-01-30 06:40:00,25.4,24.2,29.99,ENE,76,0.0,0.0,95,0.00,,,0.00,Wunderground v.1.12,2013-01-30 13:40:00,
2013-01-30 06:45:00,25.4,24.2,29.99,ENE,76,0.0,0.0,95,0.00,,,0.00,Wunderground v.1.12,2013-01-30 13:45:00,
2013-01-30 06:50:00,25.5,24.5,29.99,ENE,76,0.0,0.0,96,0.00,,,0.00,Wunderground v.1.12,2013-01-30 13:50:00,
2013-01-30 06:55:00,25.1,24.1,29.99,ENE,76,0.0,0.0,96,0.00,,,0.00,Wunderground v.1.12,2013-01-30 13:55:00,
2013-01-30 07:00:00,25.7,24.7,29.99,ENE,76,0.0,0.0,96,0.00,,,0.00,Wunderground v.1.12,2013-01-30 14:00:00,
2013-01-30 07:05:00,25.4,24.7,29.99,ENE,76,0.0,0.0,97,0.00,,,0.00,Wunderground v.1.12,2013-01-30 14:05:00,
2013-01-30 07:15:00,25.9,24.9,29.98,ENE,76,0.0,0.0,96,0.00,,,0.00,Wunderground v.1.12,2013-01-30 14:15:00,
2013-01-30 07:20:00,25.6,24.6,29.99,ENE,76,0.0,0.0,96,0.00,,,0.00,Wunderground v.1.12,2013-01-30 14:20:00,
2013-01-30 07:25:00,25.5,24.5,29.99,ENE,76,0.0,0.0,96,0.00,,,0.00,Wunderground v.1.12,2013-01-30 14:25:00,
2013-01-30 07:30:00,25.9,24.9,29.99,ENE,76,0.0,0.0,96,0.00,,,0.00,Wunderground v.1.12,2013-01-30 14:30:00,
2013-01-30 07:35:00,25.5,24.5,29.99,ENE,76,0.0,0.0,96,0.00,,,0.00,Wunderground v.1.12,2013-01-30 14:35:00,
2013-01-30 07:45:00,25.8,24.8,29.99,ENE,76,0.0,0.0,96,0.00,,,0.00,Wunderground v.1.12,2013-01-30 14:45:00,
2013-01-30 07:50:00,25.7,24.7,29.98,ENE,76,0.0,0.0,96,0.00,,,0.00,Wunderground v.1.12,2013-01-30 14:50:00,
2013-01-30 07:55:00,25.9,25.2,29.98,ENE,76,0.0,0.0,97,0.00,,,0.00,Wunderground v.1.12,2013-01-30 14:55:00,
2013-01-30 08:00:00,26.2,25.5,29.98,ENE,76,0.0,0.0,97,0.00,,,0.00,Wunderground v.1.12,2013-01-30 15:00:00,
2013-01-30 08:05:00,25.9,25.2,29.98,ENE,76,0.0,0.0,97,0.00,,,0.00,Wunderground v.1.12,2013-01-30 15:05:00,
2013-01-30 08:10:00,25.9,25.2,29.98,ENE,76,0.0,0.0,97,0.00,,,0.00,Wunderground v.1.12,2013-01-30 15:10:00,
2013-01-30 08:15:00,26.0,25.5,29.98,ENE,76,0.0,0.0,98,0.00,,,0.00,Wunderground v.1.12,2013-01-30 15:15:00,
2013-01-30 08:20:00,26.1,25.6,29.98,ENE,76,0.0,0.0,98,0.00,,,0.00,Wunderground v.1.12,2013-01-30 15:20:00,
2013-01-30 08:30:00,26.3,25.8,29.99,SSW,192,0.0,0.0,98,0.00,,,0.00,Wunderground v.1.12,2013-01-30 15:30:00,
2013-01-30 08:35:00,26.0,25.0,29.98,South,182,0.0,0.0,96,0.00,,,0.00,Wunderground v.1.12,2013-01-30 15:35:00,
2013-01-30 08:40:00,25.6,24.6,29.99,South,182,0.0,0.0,96,0.00,,,0.00,Wunderground v.1.12,2013-01-30 15:40:00,
2013-01-30 08:45:00,25.7,24.5,29.99,South,182,0.0,0.0,95,0.00,,,0.00,Wunderground v.1.12,2013-01-30 15:45:00,
2013-01-30 08:50:00,26.0,24.8,29.99,South,183,0.0,0.0,95,0.00,,,0.00,Wunderground v.1.12,2013-01-30 15:50:00,
2013-01-30 08:55:00,26.1,24.9,29.99,South,182,0.0,0.0,95,0.00,,,0.00,Wunderground v.1.12,2013-01-30 15:55:00,
2013-01-30 09:00:00,25.6,24.4,29.99,South,182,0.0,0.0,95,0.00,,,0.00,Wunderground v.1.12,2013-01-30 16:00:00,
2013-01-30 09:05:00,26.0,24.8,29.98,South,183,0.0,0.0,95,0.00,,,0.00,Wunderground v.1.12,2013-01-30 16:05:00,
2013-01-30 09:10:00,26.3,25.1,29.98,South,182,0.0,0.0,95,0.00,,,0.00,Wunderground v.1.12,2013-01-30 16:10:00,
2013-01-30 09:15:00,26.4,25.2,29.98,South,182,0.0,0.0,95,0.00,,,0.00,Wunderground v.1.12,2013-01-30 16:15:00,
2013-01-30 09:20:00,26.3,25.1,29.98,South,182,0.0,0.0,95,0.00,,,0.00,Wunderground v.1.12,2013-01-30 16:20:00,
2013-01-30 09:25:00,26.5,25.3,29.99,South,182,0.0,0.0,95,0.00,,,0.00,Wunderground v.1.12,2013-01-30 16:25:00,
2013-01-30 09:35:00,26.3,25.3,29.98,South,182,0.0,0.0,96,0.00,,,0.00,Wunderground v.1.12,2013-01-30 16:35:00,
2013-01-30 09:40:00,26.6,25.4,29.99,South,182,0.0,0.0,95,0.00,,,0.00,Wunderground v.1.12,2013-01-30 16:40:00,
2013-01-30 09:45:00,26.1,25.1,29.98,South,183,0.0,0.0,96,0.00,,,0.00,Wunderground v.1.12,2013-01-30 16:45:00,
2013-01-30 09:50:00,26.9,25.9,29.99,South,183,0.0,0.0,96,0.00,,,0.00,Wunderground v.1.12,2013-01-30 16:50:00,
2013-01-30 09:55:00,26.6,25.9,29.99,South,183,0.0,0.0,97,0.00,,,0.00,Wunderground v.1.12,2013-01-30 16:55:00,
2013-01-30 10:00:00,27.0,26.3,29.99,South,182,0.0,0.0,97,0.00,,,0.00,Wunderground v.1.12,2013-01-30 17:00:00,
2013-01-30 10:10:00,26.9,26.2,29.99,South,182,0.0,0.0,97,0.00,,,0.00,Wunderground v.1.12,2013-01-30 17:10:00,
2013-01-30 10:20:00,27.3,26.6,29.99,South,182,0.0,0.0,97,0.00,,,0.00,Wunderground v.1.12,2013-01-30 17:20:00,
2013-01-30 10:25:00,27.4,26.7,29.99,South,182,0.0,0.0,97,0.00,,,0.00,Wunderground v.1.12,2013-01-30 17:25:00,
2013-01-30 10:30:00,27.4,26.7,29.99,South,183,0.0,0.0,97,0.00,,,0.00,Wunderground v.1.12,2013-01-30 17:30:00,
2013-01-30 10:35:00,27.4,26.7,29.99,South,183,0.0,0.0,97,0.00,,,0.00,Wunderground v.1.12,2013-01-30 17:35:00,
2013-01-30 10:45:00,28.0,27.3,29.99,South,183,0.0,0.0,97,0.00,,,0.00,Wunderground v.1.12,2013-01-30 17:45:00,
2013-01-30 10:50:00,28.2,27.5,29.99,South,183,0.0,0.0,97,0.00,,,0.00,Wunderground v.1.12,2013-01-30 17:50:00,
2013-01-30 10:55:00,28.5,27.8,30.00,South,182,0.0,0.0,97,0.00,,,0.00,Wunderground v.1.12,2013-01-30 17:55:00,
2013-01-30 11:00:00,28.7,28.0,30.00,South,182,0.0,0.0,97,0.00,,,0.00,Wunderground v.1.12,2013-01-30 18:00:00,
2013-01-30 11:05:00,28.7,27.7,30.00,South,184,0.0,0.0,96,0.00,,,0.00,Wunderground v.1.12,2013-01-30 18:05:00,
2013-01-30 11:15:00,28.8,27.8,30.00,South,184,0.0,0.0,96,0.00,,,0.00,Wunderground v.1.12,2013-01-30 18:15:00,
2013-01-30 11:20:00,29.0,28.0,30.00,South,184,0.0,0.0,96,0.00,,,0.00,Wunderground v.1.12,2013-01-30 18:20:00,
2013-01-30 11:25:00,29.2,28.2,30.00,South,184,0.0,0.0,96,0.00,,,0.00,Wunderground v.1.12,2013-01-30 18:25:00,
2013-01-30 11:35:00,29.5,28.5,30.00,South,185,0.0,0.0,96,0.00,,,0.00,Wunderground v.1.12,2013-01-30 18:35:00,
2013-01-30 11:45:00,29.8,28.8,30.00,South,184,0.0,0.0,96,0.00,,,0.00,Wunderground v.1.12,2013-01-30 18:45:00,
2013-01-30 11:55:00,30.0,29.0,30.00,South,184,0.0,0.0,96,0.00,,,0.00,Wunderground v.1.12,2013-01-30 18:55:00,
2013-01-30 12:00:00,30.3,29.3,29.99,South,185,0.0,0.0,96,0.00,,,0.00,Wunderground v.1.12,2013-01-30 19:00:00,
2013-01-30 12:05:00,30.5,29.5,29.99,WSW,252,0.0,0.0,96,0.00,,,0.00,Wunderground v.1.12,2013-01-30 19:05:00,
2013-01-30 12:10:00,30.7,29.7,29.99,WSW,237,0.0,0.0,96,0.00,,,0.00,Wunderground v.1.12,2013-01-30 19:10:00,
2013-01-30 12:15:00,31.1,30.1,29.99,SW,236,0.0,0.0,96,0.00,,,0.00,Wunderground v.1.12,2013-01-30 19:15:00,
2013-01-30 12:20:00,31.1,29.8,29.99,NW,315,0.0,2.0,95,0.00,,,0.00,Wunderground v.1.12,2013-01-30 19:20:00,
2013-01-30 12:25:00,31.5,30.5,29.99,North,349,0.0,0.0,96,0.00,,,0.00,Wunderground v.1.12,2013-01-30 19:25:00,
2013-01-30 12:30:00,32.3,31.3,29.99,NNW,348,0.0,0.0,96,0.00,,,0.00,Wunderground v.1.12,2013-01-30 19:30:00,
2013-01-30 12:35:00,32.6,31.1,29.99,North,349,0.0,0.0,94,0.00,,,0.00,Wunderground v.1.12,2013-01-30 19:35:00,
2013-01-30 12:40:00,33.7,32.2,29.99,North,353,4.0,4.0,94,0.00,,,0.00,Wunderground v.1.12,2013-01-30 19:40:00,
2013-01-30 12:45:00,33.9,32.1,29.99,NNW,343,0.0,0.0,93,0.00,,,0.00,Wunderground v.1.12,2013-01-30 19:45:00,
2013-01-30 12:50:00,34.0,32.2,29.99,North,351,0.0,0.0,93,0.00,,,0.00,Wunderground v.1.12,2013-01-30 19:50:00,
2013-01-30 13:00:00,34.7,32.3,29.99,North,353,0.0,0.0,91,0.00,,,0.00,Wunderground v.1.12,2013-01-30 20:00:00,
2013-01-30 13:05:00,33.7,31.4,29.99,North,0,0.0,5.0,91,0.00,,,0.00,Wunderground v.1.12,2013-01-30 20:05:00,
2013-01-30 13:10:00,34.7,32.6,29.99,North,350,0.0,0.0,92,0.00,,,0.00,Wunderground v.1.12,2013-01-30 20:10:00,
2013-01-30 13:15:00,35.2,32.8,29.99,North,355,0.0,0.0,91,0.00,,,0.00,Wunderground v.1.12,2013-01-30 20:15:00,
2013-01-30 13:20:00,35.5,32.9,29.99,North,354,0.0,0.0,90,0.00,,,0.00,Wunderground v.1.12,2013-01-30 20:20:00,
2013-01-30 13:30:00,36.2,33.3,29.99,North,356,0.0,0.0,89,0.00,,,0.00,Wunderground v.1.12,2013-01-30 20:30:00,
2013-01-30 13:35:00,36.1,33.2,29.99,North,356,0.0,0.0,89,0.00,,,0.00,Wunderground v.1.12,2013-01-30 20:35:00,
2013-01-30 13:40:00,36.1,33.2,29.98,North,354,0.0,0.0,89,0.00,,,0.00,Wunderground v.1.12,2013-01-30 20:40:00,
2013-01-30 13:45:00,36.3,33.4,29.99,North,358,0.0,0.0,89,0.00,,,0.00,Wunderground v.1.12,2013-01-30 20:45:00,
2013-01-30 13:50:00,36.3,33.4,29.98,North,355,0.0,0.0,89,0.00,,,0.00,Wunderground v.1.12,2013-01-30 20:50:00,
2013-01-30 14:00:00,37.1,33.9,29.99,North,354,0.0,0.0,88,0.00,,,0.00,Wunderground v.1.12,2013-01-30 21:00:00,
2013-01-30 14:05:00,37.5,34.0,30.00,North,355,0.0,0.0,87,0.00,,,0.00,Wunderground v.1.12,2013-01-30 21:05:00,
2013-01-30 14:10:00,37.5,33.7,29.99,North,357,0.0,0.0,86,0.00,,,0.00,Wunderground v.1.12,2013-01-30 21:10:00,
2013-01-30 14:15:00,37.7,33.6,30.00,South,173,0.0,0.0,85,0.00,,,0.00,Wunderground v.1.12,2013-01-30 21:15:00,
2013-01-30 14:20:00,37.8,33.7,30.00,SW,233,0.0,0.0,85,0.00,,,0.00,Wunderground v.1.12,2013-01-30 21:20:00,
2013-01-30 14:25:00,37.9,33.5,30.00,North,355,0.0,0.0,84,0.00,,,0.00,Wunderground v.1.12,2013-01-30 21:25:00,
2013-01-30 14:35:00,37.5,33.4,30.00,North,355,0.0,0.0,85,0.00,,,0.00,Wunderground v.1.12,2013-01-30 21:35:00,
2013-01-30 14:40:00,37.4,33.6,30.00,North,357,0.0,0.0,86,0.00,,,0.00,Wunderground v.1.12,2013-01-30 21:40:00,
2013-01-30 14:45:00,37.2,33.4,30.00,North,356,0.0,0.0,86,0.00,,,0.00,Wunderground v.1.12,2013-01-30 21:45:00,
2013-01-30 14:50:00,37.3,33.5,30.00,North,356,0.0,0.0,86,0.00,,,0.00,Wunderground v.1.12,2013-01-30 21:50:00,
2013-01-30 14:55:00,37.1,33.6,30.00,North,358,0.0,0.0,87,0.00,,,0.00,Wunderground v.1.12,2013-01-30 21:55:00,
2013-01-30 15:00:00,37.0,33.2,29.99,North,358,0.0,0.0,86,0.00,,,0.00,Wunderground v.1.12,2013-01-30 22:00:00,
2013-01-30 15:10:00,37.2,33.4,30.00,North,356,0.0,0.0,86,0.00,,,0.00,Wunderground v.1.12,2013-01-30 22:10:00,
2013-01-30 15:15:00,37.3,33.2,30.00,North,357,0.0,0.0,85,0.00,,,0.00,Wunderground v.1.12,2013-01-30 22:15:00,
2013-01-30 15:20:00,37.5,33.4,30.00,North,357,0.0,0.0,85,0.00,,,0.00,Wunderground v.1.12,2013-01-30 22:20:00,
2013-01-30 15:25:00,37.3,32.9,30.00,North,358,0.0,0.0,84,0.00,,,0.00,Wunderground v.1.12,2013-01-30 22:25:00,
2013-01-30 15:30:00,37.7,33.3,30.00,North,358,0.0,0.0,84,0.00,,,0.00,Wunderground v.1.12,2013-01-30 22:30:00,
2013-01-30 15:40:00,37.7,33.3,30.00,North,0,0.0,0.0,84,0.00,,,0.00,Wunderground v.1.12,2013-01-30 22:40:00,
2013-01-30 15:45:00,37.5,33.1,30.00,North,6,0.0,0.0,84,0.00,,,0.00,Wunderground v.1.12,2013-01-30 22:45:00,
2013-01-30 15:50:00,37.5,33.1,30.00,North,358,0.0,0.0,84,0.00,,,0.00,Wunderground v.1.12,2013-01-30 22:50:00,
2013-01-30 15:55:00,37.7,33.3,30.00,North,358,0.0,0.0,84,0.00,,,0.00,Wunderground v.1.12,2013-01-30 22:55:00,
2013-01-30 16:00:00,37.7,33.3,30.01,North,359,0.0,0.0,84,0.00,,,0.00,Wunderground v.1.12,2013-01-30 23:00:00,
2013-01-30 16:05:00,37.7,33.3,30.01,North,359,0.0,0.0,84,0.00,,,0.00,Wunderground v.1.12,2013-01-30 23:05:00,
2013-01-30 16:15:00,37.6,33.2,30.00,North,0,0.0,0.0,84,0.00,,,0.00,Wunderground v.1.12,2013-01-30 23:15:00,
2013-01-30 16:20:00,37.3,32.9,30.01,North,359,0.0,0.0,84,0.00,,,0.00,Wunderground v.1.12,2013-01-30 23:20:00,
2013-01-30 16:25:00,37.6,33.2,30.01,North,0,0.0,0.0,84,0.00,,,0.00,Wunderground v.1.12,2013-01-30 23:25:00,
2013-01-30 16:30:00,37.4,33.0,30.01,North,359,0.0,0.0,84,0.00,,,0.00,Wunderground v.1.12,2013-01-30 23:30:00,
2013-01-30 16:35:00,37.6,32.9,30.01,North,0,0.0,0.0,83,0.00,,,0.00,Wunderground v.1.12,2013-01-30 23:35:00,
2013-01-30 16:45:00,37.8,33.1,30.01,North,2,0.0,0.0,83,0.00,,,0.00,Wunderground v.1.12,2013-01-30 23:45:00,
2013-01-30 16:50:00,37.8,33.1,30.01,North,0,0.0,0.0,83,0.00,,,0.00,Wunderground v.1.12,2013-01-30 23:50:00,
2013-01-30 16:55:00,37.7,32.7,30.01,North,1,0.0,0.0,82,0.00,,,0.00,Wunderground v.1.12,2013-01-30 23:55:00,
2013-01-30 17:00:00,37.6,32.9,30.01,North,0,0.0,0.0,83,0.00,,,0.00,Wunderground v.1.12,2013-01-31 00:00:00,
2013-01-30 17:05:00,37.4,32.7,30.01,North,357,0.0,0.0,83,0.00,,,0.00,Wunderground v.1.12,2013-01-31 00:05:00,
2013-01-30 17:10:00,37.4,32.7,30.01,North,0,0.0,0.0,83,0.00,,,0.00,Wunderground v.1.12,2013-01-31 00:10:00,
2013-01-30 17:20:00,37.2,32.5,30.02,North,0,0.0,0.0,83,0.00,,,0.00,Wunderground v.1.12,2013-01-31 00:20:00,
2013-01-30 17:25:00,37.2,32.5,30.02,North,8,0.0,0.0,83,0.00,,,0.00,Wunderground v.1.12,2013-01-31 00:25:00,
2013-01-30 17:35:00,36.7,32.3,30.02,North,4,0.0,0.0,84,0.00,,,0.00,Wunderground v.1.12,2013-01-31 00:35:00,
2013-01-30 17:40:00,36.9,32.5,30.01,North,10,1.0,1.0,84,0.00,,,0.00,Wunderground v.1.12,2013-01-31 00:40:00,
2013-01-30 17:50:00,36.6,32.2,30.02,North,0,0.0,0.0,84,0.00,,,0.00,Wunderground v.1.12,2013-01-31 00:50:00,
2013-01-30 17:55:00,36.5,32.1,30.02,North,0,0.0,0.0,84,0.00,,,0.00,Wunderground v.1.12,2013-01-31 00:55:00,
2013-01-30 18:00:00,36.5,32.1,30.02,North,1,0.0,0.0,84,0.00,,,0.00,Wunderground v.1.12,2013-01-31 01:00:00,
2013-01-30 18:05:00,36.4,32.0,30.03,North,0,0.0,0.0,84,0.00,,,0.00,Wunderground v.1.12,2013-01-31 01:05:00,
2013-01-30 18:10:00,36.4,32.0,30.03,North,0,0.0,0.0,84,0.00,,,0.00,Wunderground v.1.12,2013-01-31 01:10:00,
2013-01-30 18:15:00,36.2,31.8,30.03,North,7,0.0,0.0,84,0.00,,,0.00,Wunderground v.1.12,2013-01-31 01:15:00,
2013-01-30 18:25:00,36.1,31.7,30.04,SW,236,0.0,0.0,84,0.00,,,0.00,Wunderground v.1.12,2013-01-31 01:25:00,
2013-01-30 18:30:00,35.9,31.5,30.04,North,0,0.0,0.0,84,0.00,,,0.00,Wunderground v.1.12,2013-01-31 01:30:00,
2013-01-30 18:35:00,35.8,31.4,30.04,North,0,0.0,0.0,84,0.00,,,0.00,Wunderground v.1.12,2013-01-31 01:35:00,
2013-01-30 18:40:00,36.0,31.6,30.04,North,0,0.0,0.0,84,0.00,,,0.00,Wunderground v.1.12,2013-01-31 01:40:00,
2013-01-30 18:45:00,35.8,31.7,30.04,North,0,0.0,0.0,85,0.00,,,0.00,Wunderground v.1.12,2013-01-31 01:45:00,
2013-01-30 18:55:00,35.7,31.9,30.04,North,0,0.0,0.0,86,0.00,,,0.00,Wunderground v.1.12,2013-01-31 01:55:00,
2013-01-30 19:00:00,35.6,31.5,30.03,North,0,0.0,0.0,85,0.00,,,0.00,Wunderground v.1.12,2013-01-31 02:00:00,
2013-01-30 19:05:00,35.9,31.8,30.03,North,0,0.0,0.0,85,0.00,,,0.00,Wunderground v.1.12,2013-01-31 02:05:00,
2013-01-30 19:10:00,35.6,31.2,30.04,ENE,63,0.0,0.0,84,0.00,,,0.00,Wunderground v.1.12,2013-01-31 02:10:00,
2013-01-30 19:15:00,35.7,31.3,30.04,North,0,0.0,0.0,84,0.00,,,0.00,Wunderground v.1.12,2013-01-31 02:15:00,
2013-01-30 19:20:00,35.6,31.2,30.04,North,0,0.0,0.0,84,0.00,,,0.00,Wunderground v.1.12,2013-01-31 02:20:00,
2013-01-30 19:25:00,35.6,31.2,30.04,North,0,0.0,0.0,84,0.00,,,0.00,Wunderground v.1.12,2013-01-31 02:25:00,
2013-01-30 19:30:00,35.8,31.4,30.03,North,0,0.0,0.0,84,0.00,,,0.00,Wunderground v.1.12,2013-01-31 02:30:00,
2013-01-30 19:35:00,36.0,31.6,30.03,North,357,0.0,0.0,84,0.00,,,0.00,Wunderground v.1.12,2013-01-31 02:35:00,
2013-01-30 19:40:00,35.6,31.2,30.04,North,353,0.0,0.0,84,0.00,,,0.00,Wunderground v.1.12,2013-01-31 02:40:00,
2013-01-30 19:45:00,36.1,31.7,30.04,WSW,256,0.0,0.0,84,0.00,,,0.00,Wunderground v.1.12,2013-01-31 02:45:00,
2013-01-30 19:50:00,35.7,31.3,30.04,North,357,0.0,0.0,84,0.00,,,0.00,Wunderground v.1.12,2013-01-31 02:50:00,
2013-01-30 20:00:00,36.3,31.9,30.05,North,0,0.0,0.0,84,0.00,,,0.00,Wunderground v.1.12,2013-01-31 03:00:00,
2013-01-30 20:05:00,36.4,32.0,30.05,North,0,0.0,0.0,84,0.00,,,0.00,Wunderground v.1.12,2013-01-31 03:05:00,
2013-01-30 20:10:00,36.4,32.0,30.05,North,0,0.0,0.0,84,0.00,,,0.00,Wunderground v.1.12,2013-01-31 03:10:00,
2013-01-30 20:15:00,36.4,32.0,30.05,North,0,0.0,0.0,84,0.00,,,0.00,Wunderground v.1.12,2013-01-31 03:15:00,
2013-01-30 20:20:00,36.4,32.0,30.05,SSE,155,0.0,0.0,84,0.00,,,0.00,Wunderground v.1.12,2013-01-31 03:20:00,
2013-01-30 20:30:00,36.0,31.6,30.05,North,0,0.0,0.0,84,0.00,,,0.00,Wunderground v.1.12,2013-01-31 03:30:00,
2013-01-30 20:35:00,36.1,31.7,30.05,North,0,0.0,0.0,84,0.00,,,0.00,Wunderground v.1.12,2013-01-31 03:35:00,
2013-01-30 20:45:00,36.3,31.9,30.06,North,0,0.0,0.0,84,0.00,,,0.00,Wunderground v.1.12,2013-01-31 03:45:00,
2013-01-30 20:50:00,36.3,31.9,30.06,NNW,335,0.0,0.0,84,0.00,,,0.00,Wunderground v.1.12,2013-01-31 03:50:00,
2013-01-30 20:55:00,36.2,31.8,30.06,North,0,0.0,0.0,84,0.00,,,0.00,Wunderground v.1.12,2013-01-31 03:55:00,
2013-01-30 21:00:00,36.3,31.9,30.06,North,0,0.0,0.0,84,0.00,,,0.00,Wunderground v.1.12,2013-01-31 04:00:00,
2013-01-30 21:05:00,36.2,31.8,30.06,North,0,0.0,0.0,84,0.00,,,0.00,Wunderground v.1.12,2013-01-31 04:05:00,
2013-01-30 21:15:00,36.3,31.9,30.06,North,0,0.0,0.0,84,0.00,,,0.00,Wunderground v.1.12,2013-01-31 04:15:00,
2013-01-30 21:20:00,36.1,31.7,30.06,West,273,0.0,0.0,84,0.00,,,0.00,Wunderground v.1.12,2013-01-31 04:20:00,
2013-01-30 21:25:00,36.4,32.0,30.07,North,0,0.0,0.0,84,0.00,,,0.00,Wunderground v.1.12,2013-01-31 04:25:00,
2013-01-30 21:30:00,36.3,31.9,30.07,North,0,0.0,0.0,84,0.00,,,0.00,Wunderground v.1.12,2013-01-31 04:30:00,
2013-01-30 21:40:00,36.3,31.6,30.06,North,8,0.0,0.0,83,0.00,,,0.00,Wunderground v.1.12,2013-01-31 04:40:00,
2013-01-30 21:45:00,36.6,31.9,30.06,WSW,252,0.0,0.0,83,0.00,,,0.00,Wunderground v.1.12,2013-01-31 04:45:00,
2013-01-30 21:50:00,36.5,31.8,30.07,North,0,0.0,0.0,83,0.00,,,0.00,Wunderground v.1.12,2013-01-31 04:50:00,
2013-01-30 21:55:00,36.7,32.0,30.06,North,0,0.0,0.0,83,0.00,,,0.00,Wunderground v.1.12,2013-01-31 04:55:00,
2013-01-30 22:00:00,36.7,32.0,30.06,North,0,0.0,0.0,83,0.00,,,0.00,Wunderground v.1.12,2013-01-31 05:00:00,
2013-01-30 22:10:00,36.9,32.2,30.07,North,0,0.0,0.0,83,0.00,,,0.00,Wunderground v.1.12,2013-01-31 05:10:00,
2013-01-30 22:15:00,36.6,31.9,30.07,WSW,257,0.0,0.0,83,0.00,,,0.00,Wunderground v.1.12,2013-01-31 05:15:00,
2013-01-30 22:20:00,36.6,31.9,30.06,West,267,0.0,0.0,83,0.00,,,0.00,Wunderground v.1.12,2013-01-31 05:20:00,
2013-01-30 22:25:00,36.5,31.8,30.06,North,355,0.0,0.0,83,0.00,,,0.00,Wunderground v.1.12,2013-01-31 05:25:00,
2013-01-30 22:30:00,36.6,31.9,30.07,North,0,0.0,0.0,83,0.00,,,0.00,Wunderground v.1.12,2013-01-31 05:30:00,
2013-01-30 22:40:00,36.6,31.9,30.07,North,0,0.0,0.0,83,0.00,,,0.00,Wunderground v.1.12,2013-01-31 05:40:00,
2013-01-30 22:45:00,36.6,32.2,30.07,NNW,335,0.0,0.0,84,0.00,,,0.00,Wunderground v.1.12,2013-01-31 05:45:00,
2013-01-30 22:50:00,36.5,31.8,30.07,North,0,0.0,0.0,83,0.00,,,0.00,Wunderground v.1.12,2013-01-31 05:50:00,
2013-01-30 22:55:00,36.5,31.8,30.07,North,0,0.0,0.0,83,0.00,,,0.00,Wunderground v.1.12,2013-01-31 05:55:00,
2013-01-30 23:00:00,36.7,32.3,30.07,North,1,0.0,0.0,84,0.00,,,0.00,Wunderground v.1.12,2013-01-31 06:00:00,
2013-01-30 23:05:00,36.4,32.0,30.08,North,0,0.0,0.0,84,0.00,,,0.00,Wunderground v.1.12,2013-01-31 06:05:00,
2013-01-30 23:10:00,36.3,31.9,30.08,North,0,0.0,0.0,84,0.00,,,0.00,Wunderground v.1.12,2013-01-31 06:10:00,
2013-01-30 23:20:00,36.4,32.0,30.08,North,0,0.0,0.0,84,0.00,,,0.00,Wunderground v.1.12,2013-01-31 06:20:00,
2013-01-30 23:25:00,36.4,32.0,30.08,North,0,0.0,0.0,84,0.00,,,0.00,Wunderground v.1.12,2013-01-31 06:25:00,
2013-01-30 23:30:00,36.5,32.4,30.08,North,0,0.0,0.0,85,0.00,,,0.00,Wunderground v.1.12,2013-01-31 06:30:00,
2013-01-30 23:35:00,36.3,32.2,30.08,North,0,0.0,0.0,85,0.00,,,0.00,Wunderground v.1.12,2013-01-31 06:35:00,
2013-01-30 23:40:00,36.2,32.1,30.08,North,0,0.0,0.0,85,0.00,,,0.00,Wunderground v.1.12,2013-01-31 06:40:00,
2013-01-30 23:45:00,36.3,32.2,30.08,North,0,0.0,0.0,85,0.00,,,0.00,Wunderground v.1.12,2013-01-31 06:45:00,
2013-01-30 23:55:00,36.2,32.1,30.08,North,0,0.0,0.0,85,0.00,,,0.00,Wunderground v.1.12,2013-01-31 06:55:00,